Time,TemperatureF,DewpointF,PressureIn,WindDirection,WindDirectionDegrees,WindSpeedMPH,WindSpeedGustMPH,Humidity,HourlyPrecipIn,Conditions,Clouds,dailyrainin,SolarRadiationWatts/m^2,SoftwareType,DateUTC
2014-04-18 00:02:00,50.0,17.0,-100.00,South,176,10.0,27.0,27,0.00,,,0.00,0.000000,,2014-04-18 07:02:00,
2014-04-18 00:42:00,49.0,17.0,-100.00,SSW,194,9.0,26.0,28,0.00,,,0.00,0.000000,,2014-04-18 07:42:00,
2014-04-18 00:52:00,49.0,17.0,-100.00,SSW,194,9.0,26.0,28,0.00,,,0.00,0.000000,,2014-04-18 07:52:00,
2014-04-18 01:02:00,49.0,17.0,-100.00,SSW,194,9.0,26.0,28,0.00,,,0.00,0.000000,,2014-04-18 08:02:00,
2014-04-18 01:11:00,49.0,17.0,-100.00,SSW,194,9.0,26.0,28,0.00,,,0.00,0.000000,,2014-04-18 08:11:00,
2014-04-18 01:42:00,48.0,18.0,-100.00,SW,217,8.0,19.0,30,0.00,,,0.00,0.000000,,2014-04-18 08:42:00,
2014-04-18 01:52:00,48.0,18.0,-100.00,SW,217,8.0,19.0,30,0.00,,,0.00,0.000000,,2014-04-18 08:52:00,
2014-04-18 02:01:00,48.0,18.0,-100.00,SW,217,8.0,19.0,30,0.00,,,0.00,0.000000,,2014-04-18 09:01:00,
2014-04-18 02:11:00,48.0,18.0,-100.00,SW,217,8.0,19.0,30,0.00,,,0.00,0.000000,,2014-04-18 09:11:00,
2014-04-18 02:12:00,48.0,19.0,-100.00,SSW,203,10.0,30.0,31,0.00,,,0.00,0.000000,,2014-04-18 09:12:00,
2014-04-18 02:43:00,48.0,19.0,-100.00,SSW,203,10.0,30.0,31,0.00,,,0.00,0.000000,,2014-04-18 09:43:00,
2014-04-18 02:54:00,48.0,19.0,-100.00,SSW,203,10.0,30.0,31,0.00,,,0.00,0.000000,,2014-04-18 09:54:00,
2014-04-18 03:03:00,48.0,19.0,-100.00,SSW,203,10.0,30.0,31,0.00,,,0.00,0.000000,,2014-04-18 10:03:00,
2014-04-18 03:12:00,46.0,17.0,-100.00,SSW,200,9.0,25.0,31,0.00,,,0.00,0.000000,,2014-04-18 10:12:00,
2014-04-18 03:43:00,46.0,17.0,-100.00,SSW,200,9.0,25.0,31,0.00,,,0.00,0.000000,,2014-04-18 10:43:00,
2014-04-18 03:54:00,46.0,17.0,-100.00,SSW,200,9.0,25.0,31,0.00,,,0.00,0.000000,,2014-04-18 10:54:00,
2014-04-18 04:02:00,46.0,17.0,-100.00,SSW,200,9.0,25.0,31,0.00,,,0.00,0.000000,,2014-04-18 11:02:00,
2014-04-18 04:12:00,45.0,18.0,-100.00,SSE,161,7.0,28.0,33,0.00,,,0.00,0.000000,,2014-04-18 11:12:00,
2014-04-18 04:43:00,45.0,18.0,-100.00,SSE,161,7.0,28.0,33,0.00,,,0.00,0.000000,,2014-04-18 11:43:00,
2014-04-18 04:53:00,45.0,18.0,-100.00,SSE,161,7.0,28.0,33,0.00,,,0.00,0.000000,,2014-04-18 11:53:00,
2014-04-18 05:02:00,45.0,18.0,-100.00,SSE,161,7.0,28.0,33,0.00,,,0.00,0.000000,,2014-04-18 12:02:00,
2014-04-18 05:42:00,45.0,16.0,-100.00,South,186,7.0,20.0,31,0.00,,,0.00,0.000000,,2014-04-18 12:42:00,
2014-04-18 05:52:00,45.0,16.0,-100.00,South,186,7.0,20.0,31,0.00,,,0.00,0.000000,,2014-04-18 12:52:00,
2014-04-18 06:02:00,45.0,16.0,-100.00,South,186,7.0,20.0,31,0.00,,,0.00,0.000000,,2014-04-18 13:02:00,
2014-04-18 06:11:00,45.0,16.0,-100.00,South,186,7.0,20.0,31,0.00,,,0.00,0.000000,,2014-04-18 13:11:00,
2014-04-18 06:42:00,44.0,16.0,-100.00,SSW,201,8.0,20.0,32,0.00,,,0.00,1.000000,,2014-04-18 13:42:00,
2014-04-18 06:52:00,44.0,16.0,-100.00,SSW,201,8.0,20.0,32,0.00,,,0.00,1.000000,,2014-04-18 13:52:00,
2014-04-18 07:01:00,44.0,16.0,-100.00,SSW,201,8.0,20.0,32,0.00,,,0.00,1.000000,,2014-04-18 14:01:00,
2014-04-18 07:11:00,44.0,16.0,-100.00,SSW,201,8.0,20.0,32,0.00,,,0.00,1.000000,,2014-04-18 14:11:00,